Aérodrome :
LOGIN :

S'inscrire | Disclaimer

   EN    FR    IT 

 










Légende :    VFR   VFR Marginal   IFR   IFR Intensif   IFR Très Intensif
Visi : 
Plafond : 
>= 8 km
>= 3000ft
5 à 8 km
1000 à 3000 ft
1500m à 5 km
500 à 1000 ft
800 à 1500m
200 à 500 ft
< 800m
< 200 ft
Symboles :   Orages  Brouillard  Fortes neiges  Fortes précipitations  Vent > 20 kt
SIGMETs :   Divers  Orages  Givrage  Turbulence  Onde Orograph.  Cendres Volcan.







- Altitude de l'aérodrome : 82 ft
- Code IATA : AAR


EKAH - Aarhus Tirstrup

DERNIER METAR :
  • 200820Z AUTO 24006KT 200V270 9999NDV SCT014/// BKN053/// 20/17 Q1006

METARs EXPIRÉS :
  • 200750Z AUTO 25006KT 210V280 9999NDV FEW014/// BKN056/// BKN110/// 20/16 Q1006
  • 200720Z AUTO 24003KT 9999NDV FEW010/// BKN110/// 20/17 Q1006
  • 200650Z AUTO 24003KT 9000NDV FEW011/// SCT059/// BKN100/// 18/17 Q1006
  • 200620Z AUTO 24002KT 8000NDV BKN064/// 18/17 Q1006
  • 200550Z AUTO 25003KT 9999NDV BKN074/// BKN090/// BKN100/// 18/17 Q1005

TAF TAF EKAH
Valide du 20 à 06h jusqu'au 21 à 06h UTC


200506Z 2006/2106 22006KT 9999 SCT030
TEMPO 2006/2012 SHRA BKN008 SCT040CB
Pas de NOTAMs connus pour ce terrain.



MET'MAP, la Météo Aéronautique d'un coup d'oeil ! - Copyright ORBIFLY Décembre 2007 - Disclaimer

ORBIFLY MET'MAP TEAM :

Programmation & Développement : Alexandra Zaïnal
Conception & Développement : Baudouin d'Aumeries
Co-Programmation & Développement : Marc-Olivier Méhu
Soutien technique & logistique : Manuel Goepfert

Contact : metmap@orbifly.com




SOURCES & CREDITS :

   NOAA